sensor_id;sensor_type;location;lat;lon;timestamp;P1;durP1;ratioP1;P2;durP2;ratioP2
20982;SDS011;10650;51.528;6.748;2023-05-10T00:02:20;16.30;;;12.50;;
20982;SDS011;10650;51.528;6.748;2023-05-10T00:04:48;14.50;;;11.93;;
20982;SDS011;10650;51.528;6.748;2023-05-10T00:07:16;13.90;;;11.52;;
20982;SDS011;10650;51.528;6.748;2023-05-10T00:09:44;17.63;;;12.82;;
20982;SDS011;10650;51.528;6.748;2023-05-10T00:12:13;14.00;;;11.93;;
20982;SDS011;10650;51.528;6.748;2023-05-10T00:14:41;17.63;;;13.82;;
20982;SDS011;10650;51.528;6.748;2023-05-10T00:17:08;18.15;;;13.45;;
20982;SDS011;10650;51.528;6.748;2023-05-10T00:19:36;17.02;;;14.02;;
20982;SDS011;10650;51.528;6.748;2023-05-10T00:22:04;18.45;;;14.13;;
20982;SDS011;10650;51.528;6.748;2023-05-10T00:24:32;22.25;;;15.63;;
20982;SDS011;10650;51.528;6.748;2023-05-10T00:27:00;19.88;;;14.75;;
20982;SDS011;10650;51.528;6.748;2023-05-10T00:29:31;19.17;;;14.98;;
20982;SDS011;10650;51.528;6.748;2023-05-10T00:32:00;20.85;;;15.40;;
20982;SDS011;10650;51.528;6.748;2023-05-10T00:34:27;18.73;;;15.00;;
20982;SDS011;10650;51.528;6.748;2023-05-10T00:36:55;23.98;;;16.92;;
20982;SDS011;10650;51.528;6.748;2023-05-10T00:39:23;27.08;;;17.40;;
20982;SDS011;10650;51.528;6.748;2023-05-10T00:41:52;23.63;;;17.38;;
20982;SDS011;10650;51.528;6.748;2023-05-10T00:44:20;20.33;;;15.23;;
20982;SDS011;10650;51.528;6.748;2023-05-10T00:46:49;24.63;;;17.50;;
20982;SDS011;10650;51.528;6.748;2023-05-10T00:49:17;28.02;;;19.17;;
20982;SDS011;10650;51.528;6.748;2023-05-10T00:51:45;22.08;;;16.50;;
20982;SDS011;10650;51.528;6.748;2023-05-10T00:54:13;27.20;;;18.52;;
20982;SDS011;10650;51.528;6.748;2023-05-10T00:56:42;34.20;;;20.13;;
20982;SDS011;10650;51.528;6.748;2023-05-10T00:59:14;24.23;;;18.27;;
20982;SDS011;10650;51.528;6.748;2023-05-10T01:01:44;25.50;;;19.13;;
20982;SDS011;10650;51.528;6.748;2023-05-10T01:04:13;48.25;;;23.63;;
20982;SDS011;10650;51.528;6.748;2023-05-10T01:06:42;26.50;;;18.67;;
20982;SDS011;10650;51.528;6.748;2023-05-10T01:09:10;24.42;;;17.02;;
20982;SDS011;10650;51.528;6.748;2023-05-10T01:11:38;27.77;;;18.92;;
20982;SDS011;10650;51.528;6.748;2023-05-10T01:14:07;33.20;;;21.13;;
20982;SDS011;10650;51.528;6.748;2023-05-10T01:16:36;37.25;;;22.63;;
20982;SDS011;10650;51.528;6.748;2023-05-10T01:19:05;30.65;;;20.38;;
20982;SDS011;10650;51.528;6.748;2023-05-10T01:21:42;39.25;;;22.08;;
20982;SDS011;10650;51.528;6.748;2023-05-10T01:27:30;35.65;;;21.08;;
20982;SDS011;10650;51.528;6.748;2023-05-10T01:30:25;52.00;;;23.85;;
20982;SDS011;10650;51.528;6.748;2023-05-10T01:33:12;23.83;;;17.80;;
20982;SDS011;10650;51.528;6.748;2023-05-10T01:35:47;22.73;;;16.88;;
20982;SDS011;10650;51.528;6.748;2023-05-10T01:38:25;20.00;;;15.65;;
20982;SDS011;10650;51.528;6.748;2023-05-10T01:41:01;27.92;;;17.95;;
20982;SDS011;10650;51.528;6.748;2023-05-10T01:43:40;28.65;;;19.27;;
20982;SDS011;10650;51.528;6.748;2023-05-10T01:46:14;33.55;;;19.80;;
20982;SDS011;10650;51.528;6.748;2023-05-10T01:48:47;32.97;;;19.63;;
20982;SDS011;10650;51.528;6.748;2023-05-10T01:51:19;28.15;;;19.17;;
20982;SDS011;10650;51.528;6.748;2023-05-10T01:53:51;20.70;;;16.13;;
20982;SDS011;10650;51.528;6.748;2023-05-10T01:56:25;25.20;;;17.63;;
20982;SDS011;10650;51.528;6.748;2023-05-10T01:58:55;35.20;;;20.63;;
20982;SDS011;10650;51.528;6.748;2023-05-10T02:01:24;28.98;;;18.92;;
20982;SDS011;10650;51.528;6.748;2023-05-10T02:03:54;32.05;;;20.38;;
20982;SDS011;10650;51.528;6.748;2023-05-10T02:06:24;22.20;;;17.35;;
20982;SDS011;10650;51.528;6.748;2023-05-10T02:08:54;30.00;;;19.77;;
20982;SDS011;10650;51.528;6.748;2023-05-10T02:11:23;21.80;;;16.52;;
20982;SDS011;10650;51.528;6.748;2023-05-10T02:13:52;35.28;;;21.55;;
20982;SDS011;10650;51.528;6.748;2023-05-10T02:16:23;28.20;;;19.63;;
20982;SDS011;10650;51.528;6.748;2023-05-10T02:18:55;27.20;;;18.73;;
20982;SDS011;10650;51.528;6.748;2023-05-10T02:21:25;24.73;;;18.42;;
20982;SDS011;10650;51.528;6.748;2023-05-10T02:23:54;26.38;;;19.02;;
20982;SDS011;10650;51.528;6.748;2023-05-10T02:26:23;27.08;;;18.80;;
20982;SDS011;10650;51.528;6.748;2023-05-10T02:28:53;26.50;;;18.67;;
20982;SDS011;10650;51.528;6.748;2023-05-10T02:31:22;38.75;;;22.00;;
20982;SDS011;10650;51.528;6.748;2023-05-10T02:33:50;36.95;;;22.10;;
20982;SDS011;10650;51.528;6.748;2023-05-10T02:36:20;25.13;;;18.92;;
20982;SDS011;10650;51.528;6.748;2023-05-10T02:38:50;24.75;;;18.95;;
20982;SDS011;10650;51.528;6.748;2023-05-10T02:41:20;32.65;;;21.35;;
20982;SDS011;10650;51.528;6.748;2023-05-10T02:43:49;40.85;;;23.02;;
20982;SDS011;10650;51.528;6.748;2023-05-10T02:46:18;26.83;;;19.45;;
20982;SDS011;10650;51.528;6.748;2023-05-10T02:48:46;26.52;;;19.33;;
20982;SDS011;10650;51.528;6.748;2023-05-10T02:51:14;35.88;;;22.08;;
20982;SDS011;10650;51.528;6.748;2023-05-10T02:53:46;38.40;;;22.92;;
20982;SDS011;10650;51.528;6.748;2023-05-10T02:56:20;39.10;;;22.92;;
20982;SDS011;10650;51.528;6.748;2023-05-10T02:58:58;28.85;;;20.75;;
20982;SDS011;10650;51.528;6.748;2023-05-10T03:01:26;41.58;;;24.40;;
20982;SDS011;10650;51.528;6.748;2023-05-10T03:03:54;30.45;;;20.35;;
20982;SDS011;10650;51.528;6.748;2023-05-10T03:06:22;28.33;;;21.13;;
20982;SDS011;10650;51.528;6.748;2023-05-10T03:08:51;40.05;;;23.83;;
20982;SDS011;10650;51.528;6.748;2023-05-10T03:11:25;40.55;;;23.80;;
20982;SDS011;10650;51.528;6.748;2023-05-10T03:14:05;33.42;;;21.77;;
20982;SDS011;10650;51.528;6.748;2023-05-10T03:16:41;29.80;;;20.58;;
20982;SDS011;10650;51.528;6.748;2023-05-10T03:19:15;35.50;;;22.38;;
20982;SDS011;10650;51.528;6.748;2023-05-10T03:21:47;31.75;;;21.48;;
20982;SDS011;10650;51.528;6.748;2023-05-10T03:24:20;38.53;;;23.08;;
20982;SDS011;10650;51.528;6.748;2023-05-10T03:26:50;35.00;;;22.95;;
20982;SDS011;10650;51.528;6.748;2023-05-10T03:29:21;33.30;;;22.67;;
20982;SDS011;10650;51.528;6.748;2023-05-10T03:31:50;33.42;;;22.25;;
20982;SDS011;10650;51.528;6.748;2023-05-10T03:34:22;27.40;;;19.98;;
20982;SDS011;10650;51.528;6.748;2023-05-10T03:36:50;32.95;;;22.50;;
20982;SDS011;10650;51.528;6.748;2023-05-10T03:39:20;39.28;;;23.83;;
20982;SDS011;10650;51.528;6.748;2023-05-10T03:41:47;26.95;;;19.90;;
20982;SDS011;10650;51.528;6.748;2023-05-10T03:44:15;24.70;;;19.17;;
20982;SDS011;10650;51.528;6.748;2023-05-10T03:46:43;34.45;;;23.48;;
20982;SDS011;10650;51.528;6.748;2023-05-10T03:49:11;33.30;;;21.70;;
20982;SDS011;10650;51.528;6.748;2023-05-10T03:51:39;35.17;;;23.13;;
20982;SDS011;10650;51.528;6.748;2023-05-10T03:54:07;29.60;;;21.33;;
20982;SDS011;10650;51.528;6.748;2023-05-10T03:56:36;42.92;;;24.83;;
20982;SDS011;10650;51.528;6.748;2023-05-10T03:59:04;43.92;;;24.88;;
20982;SDS011;10650;51.528;6.748;2023-05-10T04:01:33;50.88;;;27.27;;
20982;SDS011;10650;51.528;6.748;2023-05-10T04:04:02;28.70;;;20.73;;
20982;SDS011;10650;51.528;6.748;2023-05-10T04:06:30;32.75;;;22.95;;
20982;SDS011;10650;51.528;6.748;2023-05-10T04:08:58;44.67;;;25.98;;
20982;SDS011;10650;51.528;6.748;2023-05-10T04:11:30;35.28;;;22.75;;
20982;SDS011;10650;51.528;6.748;2023-05-10T04:13:59;38.25;;;23.98;;
20982;SDS011;10650;51.528;6.748;2023-05-10T04:16:27;48.80;;;27.90;;
20982;SDS011;10650;51.528;6.748;2023-05-10T04:18:54;43.05;;;25.73;;
20982;SDS011;10650;51.528;6.748;2023-05-10T04:21:22;32.33;;;22.20;;
20982;SDS011;10650;51.528;6.748;2023-05-10T04:23:50;39.83;;;25.40;;
20982;SDS011;10650;51.528;6.748;2023-05-10T04:26:18;43.80;;;27.23;;
20982;SDS011;10650;51.528;6.748;2023-05-10T04:28:46;49.33;;;28.13;;
20982;SDS011;10650;51.528;6.748;2023-05-10T04:31:15;36.15;;;25.27;;
20982;SDS011;10650;51.528;6.748;2023-05-10T04:33:43;39.75;;;26.35;;
20982;SDS011;10650;51.528;6.748;2023-05-10T04:36:11;49.17;;;28.48;;
20982;SDS011;10650;51.528;6.748;2023-05-10T04:38:38;44.83;;;27.90;;
20982;SDS011;10650;51.528;6.748;2023-05-10T04:41:06;51.85;;;29.90;;
20982;SDS011;10650;51.528;6.748;2023-05-10T04:43:38;44.28;;;28.10;;
20982;SDS011;10650;51.528;6.748;2023-05-10T04:46:06;55.83;;;31.05;;
20982;SDS011;10650;51.528;6.748;2023-05-10T04:48:35;59.35;;;32.80;;
20982;SDS011;10650;51.528;6.748;2023-05-10T04:51:03;54.22;;;30.38;;
20982;SDS011;10650;51.528;6.748;2023-05-10T04:53:32;44.75;;;28.98;;
20982;SDS011;10650;51.528;6.748;2023-05-10T04:56:00;48.63;;;28.83;;
20982;SDS011;10650;51.528;6.748;2023-05-10T04:58:28;50.42;;;31.50;;
20982;SDS011;10650;51.528;6.748;2023-05-10T05:00:56;49.08;;;29.83;;
20982;SDS011;10650;51.528;6.748;2023-05-10T05:03:24;40.03;;;28.15;;
20982;SDS011;10650;51.528;6.748;2023-05-10T05:05:54;46.67;;;29.02;;
20982;SDS011;10650;51.528;6.748;2023-05-10T05:08:22;50.95;;;30.85;;
20982;SDS011;10650;51.528;6.748;2023-05-10T05:10:50;47.85;;;28.83;;
20982;SDS011;10650;51.528;6.748;2023-05-10T05:13:18;44.35;;;29.52;;
20982;SDS011;10650;51.528;6.748;2023-05-10T05:15:46;54.78;;;30.70;;
20982;SDS011;10650;51.528;6.748;2023-05-10T05:18:14;47.67;;;31.35;;
20982;SDS011;10650;51.528;6.748;2023-05-10T05:20:41;62.17;;;35.17;;
20982;SDS011;10650;51.528;6.748;2023-05-10T05:23:11;53.47;;;34.15;;
20982;SDS011;10650;51.528;6.748;2023-05-10T05:25:38;59.60;;;35.65;;
20982;SDS011;10650;51.528;6.748;2023-05-10T05:28:06;52.85;;;33.65;;
20982;SDS011;10650;51.528;6.748;2023-05-10T05:30:34;54.58;;;35.17;;
20982;SDS011;10650;51.528;6.748;2023-05-10T05:33:02;52.30;;;35.58;;
20982;SDS011;10650;51.528;6.748;2023-05-10T05:35:30;50.17;;;33.08;;
20982;SDS011;10650;51.528;6.748;2023-05-10T05:37:58;52.90;;;35.65;;
20982;SDS011;10650;51.528;6.748;2023-05-10T05:40:28;58.45;;;36.47;;
20982;SDS011;10650;51.528;6.748;2023-05-10T05:42:55;54.83;;;36.40;;
20982;SDS011;10650;51.528;6.748;2023-05-10T05:45:23;60.85;;;37.00;;
20982;SDS011;10650;51.528;6.748;2023-05-10T05:47:51;56.10;;;36.85;;
20982;SDS011;10650;51.528;6.748;2023-05-10T05:50:19;48.05;;;33.53;;
20982;SDS011;10650;51.528;6.748;2023-05-10T05:52:47;49.10;;;33.00;;
20982;SDS011;10650;51.528;6.748;2023-05-10T05:55:14;58.80;;;36.42;;
20982;SDS011;10650;51.528;6.748;2023-05-10T05:57:44;52.47;;;35.08;;
20982;SDS011;10650;51.528;6.748;2023-05-10T06:00:12;51.33;;;33.83;;
20982;SDS011;10650;51.528;6.748;2023-05-10T06:02:41;54.97;;;36.30;;
20982;SDS011;10650;51.528;6.748;2023-05-10T06:05:09;54.55;;;35.65;;
20982;SDS011;10650;51.528;6.748;2023-05-10T06:07:37;51.22;;;34.33;;
20982;SDS011;10650;51.528;6.748;2023-05-10T06:10:06;48.17;;;34.03;;
20982;SDS011;10650;51.528;6.748;2023-05-10T06:12:34;56.00;;;36.33;;
20982;SDS011;10650;51.528;6.748;2023-05-10T06:15:04;54.75;;;36.05;;
20982;SDS011;10650;51.528;6.748;2023-05-10T06:17:32;52.72;;;35.05;;
20982;SDS011;10650;51.528;6.748;2023-05-10T06:20:00;60.35;;;37.33;;
20982;SDS011;10650;51.528;6.748;2023-05-10T06:22:28;48.58;;;33.10;;
20982;SDS011;10650;51.528;6.748;2023-05-10T06:24:56;51.88;;;34.15;;
20982;SDS011;10650;51.528;6.748;2023-05-10T06:27:24;48.03;;;31.73;;
20982;SDS011;10650;51.528;6.748;2023-05-10T06:29:52;50.78;;;33.90;;
20982;SDS011;10650;51.528;6.748;2023-05-10T06:35:04;54.03;;;34.55;;
20982;SDS011;10650;51.528;6.748;2023-05-10T06:37:32;51.25;;;33.40;;
20982;SDS011;10650;51.528;6.748;2023-05-10T06:40:01;54.75;;;35.88;;
20982;SDS011;10650;51.528;6.748;2023-05-10T06:42:30;55.40;;;35.92;;
20982;SDS011;10650;51.528;6.748;2023-05-10T06:44:58;53.70;;;36.05;;
20982;SDS011;10650;51.528;6.748;2023-05-10T06:47:26;52.22;;;36.00;;
20982;SDS011;10650;51.528;6.748;2023-05-10T06:49:55;56.15;;;36.45;;
20982;SDS011;10650;51.528;6.748;2023-05-10T06:52:23;56.90;;;36.03;;
20982;SDS011;10650;51.528;6.748;2023-05-10T06:54:51;52.50;;;35.55;;
20982;SDS011;10650;51.528;6.748;2023-05-10T06:57:18;60.90;;;37.80;;
20982;SDS011;10650;51.528;6.748;2023-05-10T06:59:57;53.35;;;34.90;;
20982;SDS011;10650;51.528;6.748;2023-05-10T07:02:25;58.63;;;37.53;;
20982;SDS011;10650;51.528;6.748;2023-05-10T07:04:54;53.22;;;36.00;;
20982;SDS011;10650;51.528;6.748;2023-05-10T07:07:26;58.22;;;36.33;;
20982;SDS011;10650;51.528;6.748;2023-05-10T07:09:54;53.83;;;34.78;;
20982;SDS011;10650;51.528;6.748;2023-05-10T07:12:22;53.40;;;35.72;;
20982;SDS011;10650;51.528;6.748;2023-05-10T07:14:50;56.15;;;35.75;;
20982;SDS011;10650;51.528;6.748;2023-05-10T07:17:18;60.00;;;37.08;;
20982;SDS011;10650;51.528;6.748;2023-05-10T07:19:46;66.43;;;39.25;;
20982;SDS011;10650;51.528;6.748;2023-05-10T07:22:16;60.38;;;38.03;;
20982;SDS011;10650;51.528;6.748;2023-05-10T07:24:44;65.80;;;37.65;;
20982;SDS011;10650;51.528;6.748;2023-05-10T07:27:12;64.20;;;37.88;;
20982;SDS011;10650;51.528;6.748;2023-05-10T07:29:40;60.20;;;36.13;;
20982;SDS011;10650;51.528;6.748;2023-05-10T07:32:08;57.08;;;35.33;;
20982;SDS011;10650;51.528;6.748;2023-05-10T07:34:36;56.17;;;35.33;;
20982;SDS011;10650;51.528;6.748;2023-05-10T07:37:04;55.60;;;35.58;;
20982;SDS011;10650;51.528;6.748;2023-05-10T07:39:33;53.08;;;33.78;;
20982;SDS011;10650;51.528;6.748;2023-05-10T07:42:01;52.78;;;32.30;;
20982;SDS011;10650;51.528;6.748;2023-05-10T07:44:30;55.13;;;33.10;;
20982;SDS011;10650;51.528;6.748;2023-05-10T07:46:57;48.65;;;30.00;;
20982;SDS011;10650;51.528;6.748;2023-05-10T07:49:25;45.90;;;28.70;;
20982;SDS011;10650;51.528;6.748;2023-05-10T07:51:53;44.88;;;27.60;;
20982;SDS011;10650;51.528;6.748;2023-05-10T07:54:21;45.88;;;29.60;;
20982;SDS011;10650;51.528;6.748;2023-05-10T07:56:50;49.83;;;30.17;;
20982;SDS011;10650;51.528;6.748;2023-05-10T07:59:18;48.15;;;30.20;;
20982;SDS011;10650;51.528;6.748;2023-05-10T08:01:46;46.22;;;29.98;;
20982;SDS011;10650;51.528;6.748;2023-05-10T08:04:13;49.08;;;31.10;;
20982;SDS011;10650;51.528;6.748;2023-05-10T08:06:42;47.20;;;30.80;;
20982;SDS011;10650;51.528;6.748;2023-05-10T08:09:10;49.25;;;31.05;;
20982;SDS011;10650;51.528;6.748;2023-05-10T08:11:38;45.38;;;30.42;;
20982;SDS011;10650;51.528;6.748;2023-05-10T08:14:07;45.20;;;28.65;;
20982;SDS011;10650;51.528;6.748;2023-05-10T08:16:35;46.55;;;30.02;;
20982;SDS011;10650;51.528;6.748;2023-05-10T08:19:03;46.55;;;29.33;;
20982;SDS011;10650;51.528;6.748;2023-05-10T08:21:31;46.75;;;30.38;;
20982;SDS011;10650;51.528;6.748;2023-05-10T08:23:59;42.25;;;28.70;;
20982;SDS011;10650;51.528;6.748;2023-05-10T08:26:27;45.10;;;29.88;;
20982;SDS011;10650;51.528;6.748;2023-05-10T08:28:55;40.55;;;26.70;;
20982;SDS011;10650;51.528;6.748;2023-05-10T08:31:24;36.83;;;25.33;;
20982;SDS011;10650;51.528;6.748;2023-05-10T08:33:52;35.95;;;25.27;;
20982;SDS011;10650;51.528;6.748;2023-05-10T08:36:20;35.35;;;24.58;;
20982;SDS011;10650;51.528;6.748;2023-05-10T08:38:50;34.25;;;24.17;;
20982;SDS011;10650;51.528;6.748;2023-05-10T08:41:19;38.10;;;26.40;;
20982;SDS011;10650;51.528;6.748;2023-05-10T08:43:48;38.55;;;25.92;;
20982;SDS011;10650;51.528;6.748;2023-05-10T08:46:18;34.13;;;23.75;;
20982;SDS011;10650;51.528;6.748;2023-05-10T08:48:49;33.35;;;23.88;;
20982;SDS011;10650;51.528;6.748;2023-05-10T08:51:19;32.10;;;23.63;;
20982;SDS011;10650;51.528;6.748;2023-05-10T08:53:50;37.22;;;25.17;;
20982;SDS011;10650;51.528;6.748;2023-05-10T08:56:17;33.38;;;23.05;;
20982;SDS011;10650;51.528;6.748;2023-05-10T08:58:46;33.10;;;23.58;;
20982;SDS011;10650;51.528;6.748;2023-05-10T09:01:15;30.98;;;22.27;;
20982;SDS011;10650;51.528;6.748;2023-05-10T09:03:45;31.42;;;22.73;;
20982;SDS011;10650;51.528;6.748;2023-05-10T09:06:15;32.20;;;22.77;;
20982;SDS011;10650;51.528;6.748;2023-05-10T09:08:43;32.22;;;23.45;;
20982;SDS011;10650;51.528;6.748;2023-05-10T09:11:12;31.63;;;23.00;;
20982;SDS011;10650;51.528;6.748;2023-05-10T09:13:42;31.88;;;22.58;;
20982;SDS011;10650;51.528;6.748;2023-05-10T09:16:10;33.10;;;23.23;;
20982;SDS011;10650;51.528;6.748;2023-05-10T09:18:45;40.65;;;25.02;;
20982;SDS011;10650;51.528;6.748;2023-05-10T09:21:14;29.08;;;21.60;;
20982;SDS011;10650;51.528;6.748;2023-05-10T09:23:42;30.90;;;22.75;;
20982;SDS011;10650;51.528;6.748;2023-05-10T09:26:13;29.33;;;21.65;;
20982;SDS011;10650;51.528;6.748;2023-05-10T09:28:51;30.27;;;22.42;;
20982;SDS011;10650;51.528;6.748;2023-05-10T09:31:20;30.17;;;22.48;;
20982;SDS011;10650;51.528;6.748;2023-05-10T09:33:48;30.83;;;22.33;;
20982;SDS011;10650;51.528;6.748;2023-05-10T09:36:18;29.35;;;21.00;;
20982;SDS011;10650;51.528;6.748;2023-05-10T09:38:47;28.30;;;20.67;;
20982;SDS011;10650;51.528;6.748;2023-05-10T09:41:15;27.02;;;20.35;;
20982;SDS011;10650;51.528;6.748;2023-05-10T09:43:44;24.33;;;18.05;;
20982;SDS011;10650;51.528;6.748;2023-05-10T09:46:12;29.05;;;20.20;;
20982;SDS011;10650;51.528;6.748;2023-05-10T09:48:41;25.85;;;19.70;;
20982;SDS011;10650;51.528;6.748;2023-05-10T09:51:10;25.42;;;19.63;;
20982;SDS011;10650;51.528;6.748;2023-05-10T09:53:39;25.13;;;18.83;;
20982;SDS011;10650;51.528;6.748;2023-05-10T09:56:07;27.25;;;20.13;;
20982;SDS011;10650;51.528;6.748;2023-05-10T09:58:36;27.83;;;20.10;;
20982;SDS011;10650;51.528;6.748;2023-05-10T10:01:05;30.95;;;21.48;;
20982;SDS011;10650;51.528;6.748;2023-05-10T10:03:41;30.73;;;21.15;;
20982;SDS011;10650;51.528;6.748;2023-05-10T10:06:10;30.85;;;22.73;;
20982;SDS011;10650;51.528;6.748;2023-05-10T10:08:56;30.02;;;21.73;;
20982;SDS011;10650;51.528;6.748;2023-05-10T10:11:24;27.75;;;20.55;;
20982;SDS011;10650;51.528;6.748;2023-05-10T10:13:52;28.95;;;20.77;;
20982;SDS011;10650;51.528;6.748;2023-05-10T10:16:20;24.40;;;18.98;;
20982;SDS011;10650;51.528;6.748;2023-05-10T10:18:48;26.80;;;19.40;;
20982;SDS011;10650;51.528;6.748;2023-05-10T10:21:16;28.42;;;20.10;;
20982;SDS011;10650;51.528;6.748;2023-05-10T10:23:45;25.20;;;18.95;;
20982;SDS011;10650;51.528;6.748;2023-05-10T10:26:15;29.23;;;20.90;;
20982;SDS011;10650;51.528;6.748;2023-05-10T10:28:47;24.83;;;18.40;;
20982;SDS011;10650;51.528;6.748;2023-05-10T10:31:23;24.90;;;19.00;;
20982;SDS011;10650;51.528;6.748;2023-05-10T10:33:56;25.17;;;18.35;;
20982;SDS011;10650;51.528;6.748;2023-05-10T10:36:29;25.23;;;18.17;;
20982;SDS011;10650;51.528;6.748;2023-05-10T10:38:57;25.63;;;18.23;;
20982;SDS011;10650;51.528;6.748;2023-05-10T10:41:32;26.83;;;18.63;;
20982;SDS011;10650;51.528;6.748;2023-05-10T10:46:58;22.45;;;16.88;;
20982;SDS011;10650;51.528;6.748;2023-05-10T10:49:28;22.17;;;17.92;;
20982;SDS011;10650;51.528;6.748;2023-05-10T10:54:50;26.48;;;20.13;;
20982;SDS011;10650;51.528;6.748;2023-05-10T10:57:20;27.27;;;20.77;;
20982;SDS011;10650;51.528;6.748;2023-05-10T10:59:49;27.48;;;20.73;;
20982;SDS011;10650;51.528;6.748;2023-05-10T11:02:34;25.17;;;19.13;;
20982;SDS011;10650;51.528;6.748;2023-05-10T11:08:11;25.40;;;18.80;;
20982;SDS011;10650;51.528;6.748;2023-05-10T11:10:50;20.52;;;16.55;;
20982;SDS011;10650;51.528;6.748;2023-05-10T11:13:28;26.80;;;18.98;;
20982;SDS011;10650;51.528;6.748;2023-05-10T11:15:57;24.92;;;20.60;;
20982;SDS011;10650;51.528;6.748;2023-05-10T11:18:26;28.33;;;21.13;;
20982;SDS011;10650;51.528;6.748;2023-05-10T11:20:56;26.17;;;19.85;;
20982;SDS011;10650;51.528;6.748;2023-05-10T11:23:29;27.23;;;21.77;;
20982;SDS011;10650;51.528;6.748;2023-05-10T11:25:58;32.40;;;22.42;;
20982;SDS011;10650;51.528;6.748;2023-05-10T11:28:28;25.48;;;20.52;;
20982;SDS011;10650;51.528;6.748;2023-05-10T11:30:56;30.92;;;24.98;;
20982;SDS011;10650;51.528;6.748;2023-05-10T11:33:24;30.13;;;24.42;;
20982;SDS011;10650;51.528;6.748;2023-05-10T11:35:52;25.67;;;22.27;;
20982;SDS011;10650;51.528;6.748;2023-05-10T11:38:20;27.35;;;22.45;;
20982;SDS011;10650;51.528;6.748;2023-05-10T11:40:49;25.50;;;20.55;;
20982;SDS011;10650;51.528;6.748;2023-05-10T11:43:19;23.37;;;19.30;;
20982;SDS011;10650;51.528;6.748;2023-05-10T11:48:21;20.15;;;17.05;;
20982;SDS011;10650;51.528;6.748;2023-05-10T11:50:50;20.08;;;16.70;;
20982;SDS011;10650;51.528;6.748;2023-05-10T11:53:19;22.52;;;16.58;;
20982;SDS011;10650;51.528;6.748;2023-05-10T11:55:49;20.08;;;15.77;;
20982;SDS011;10650;51.528;6.748;2023-05-10T11:58:17;19.95;;;17.73;;
20982;SDS011;10650;51.528;6.748;2023-05-10T12:00:47;16.60;;;14.27;;
20982;SDS011;10650;51.528;6.748;2023-05-10T12:03:17;17.48;;;14.60;;
20982;SDS011;10650;51.528;6.748;2023-05-10T12:05:45;16.42;;;14.82;;
20982;SDS011;10650;51.528;6.748;2023-05-10T12:08:13;16.88;;;15.00;;
20982;SDS011;10650;51.528;6.748;2023-05-10T12:10:42;17.42;;;13.93;;
20982;SDS011;10650;51.528;6.748;2023-05-10T12:13:13;12.95;;;11.48;;
20982;SDS011;10650;51.528;6.748;2023-05-10T12:15:42;14.98;;;12.25;;
20982;SDS011;10650;51.528;6.748;2023-05-10T12:18:12;12.02;;;10.27;;
20982;SDS011;10650;51.528;6.748;2023-05-10T12:20:45;12.65;;;11.32;;
20982;SDS011;10650;51.528;6.748;2023-05-10T12:23:13;10.30;;;8.98;;
20982;SDS011;10650;51.528;6.748;2023-05-10T12:25:41;9.95;;;8.90;;
20982;SDS011;10650;51.528;6.748;2023-05-10T12:28:09;10.07;;;8.70;;
20982;SDS011;10650;51.528;6.748;2023-05-10T12:30:37;10.68;;;8.65;;
20982;SDS011;10650;51.528;6.748;2023-05-10T12:33:11;10.02;;;8.50;;
20982;SDS011;10650;51.528;6.748;2023-05-10T12:35:46;9.88;;;7.53;;
20982;SDS011;10650;51.528;6.748;2023-05-10T12:38:25;9.93;;;7.70;;
20982;SDS011;10650;51.528;6.748;2023-05-10T12:40:56;8.82;;;7.93;;
20982;SDS011;10650;51.528;6.748;2023-05-10T12:43:24;10.15;;;7.90;;
20982;SDS011;10650;51.528;6.748;2023-05-10T12:45:52;8.40;;;7.45;;
20982;SDS011;10650;51.528;6.748;2023-05-10T12:48:21;9.13;;;8.23;;
20982;SDS011;10650;51.528;6.748;2023-05-10T12:50:50;7.80;;;7.07;;
20982;SDS011;10650;51.528;6.748;2023-05-10T12:53:18;7.68;;;6.95;;
20982;SDS011;10650;51.528;6.748;2023-05-10T12:55:47;7.75;;;6.60;;
20982;SDS011;10650;51.528;6.748;2023-05-10T12:58:15;9.23;;;6.90;;
20982;SDS011;10650;51.528;6.748;2023-05-10T13:01:01;10.57;;;7.22;;
20982;SDS011;10650;51.528;6.748;2023-05-10T13:03:31;8.60;;;7.72;;
20982;SDS011;10650;51.528;6.748;2023-05-10T13:06:08;9.55;;;8.10;;
20982;SDS011;10650;51.528;6.748;2023-05-10T13:08:37;7.47;;;6.75;;
20982;SDS011;10650;51.528;6.748;2023-05-10T13:11:07;9.63;;;8.57;;
20982;SDS011;10650;51.528;6.748;2023-05-10T13:13:35;10.43;;;8.13;;
20982;SDS011;10650;51.528;6.748;2023-05-10T13:16:03;9.55;;;8.57;;
20982;SDS011;10650;51.528;6.748;2023-05-10T13:18:32;12.18;;;9.70;;
20982;SDS011;10650;51.528;6.748;2023-05-10T13:21:01;11.48;;;8.55;;
20982;SDS011;10650;51.528;6.748;2023-05-10T13:23:30;10.40;;;8.32;;
20982;SDS011;10650;51.528;6.748;2023-05-10T13:25:58;10.52;;;8.50;;
20982;SDS011;10650;51.528;6.748;2023-05-10T13:28:26;9.40;;;8.40;;
20982;SDS011;10650;51.528;6.748;2023-05-10T13:30:54;10.75;;;8.95;;
20982;SDS011;10650;51.528;6.748;2023-05-10T13:33:22;10.52;;;8.55;;
20982;SDS011;10650;51.528;6.748;2023-05-10T13:35:51;9.00;;;8.10;;
20982;SDS011;10650;51.528;6.748;2023-05-10T13:38:23;9.23;;;7.00;;
20982;SDS011;10650;51.528;6.748;2023-05-10T13:40:51;9.60;;;7.30;;
20982;SDS011;10650;51.528;6.748;2023-05-10T13:43:19;8.27;;;6.85;;
20982;SDS011;10650;51.528;6.748;2023-05-10T13:45:47;8.88;;;7.97;;
20982;SDS011;10650;51.528;6.748;2023-05-10T13:48:15;13.02;;;10.43;;
20982;SDS011;10650;51.528;6.748;2023-05-10T13:50:46;7.93;;;7.10;;
20982;SDS011;10650;51.528;6.748;2023-05-10T13:53:14;11.00;;;7.72;;
20982;SDS011;10650;51.528;6.748;2023-05-10T13:55:43;11.18;;;8.32;;
20982;SDS011;10650;51.528;6.748;2023-05-10T13:58:11;7.57;;;6.72;;
20982;SDS011;10650;51.528;6.748;2023-05-10T14:00:39;13.52;;;10.80;;
20982;SDS011;10650;51.528;6.748;2023-05-10T14:03:07;11.20;;;9.35;;
20982;SDS011;10650;51.528;6.748;2023-05-10T14:05:37;11.95;;;10.23;;
20982;SDS011;10650;51.528;6.748;2023-05-10T14:08:05;10.88;;;9.63;;
20982;SDS011;10650;51.528;6.748;2023-05-10T14:10:37;9.35;;;7.90;;
20982;SDS011;10650;51.528;6.748;2023-05-10T14:13:09;7.10;;;6.40;;
20982;SDS011;10650;51.528;6.748;2023-05-10T14:15:37;7.18;;;6.35;;
20982;SDS011;10650;51.528;6.748;2023-05-10T14:18:07;7.68;;;6.75;;
20982;SDS011;10650;51.528;6.748;2023-05-10T14:20:35;8.57;;;7.40;;
20982;SDS011;10650;51.528;6.748;2023-05-10T14:23:03;8.02;;;7.10;;
20982;SDS011;10650;51.528;6.748;2023-05-10T14:25:31;9.75;;;8.48;;
20982;SDS011;10650;51.528;6.748;2023-05-10T14:27:59;9.40;;;8.48;;
20982;SDS011;10650;51.528;6.748;2023-05-10T14:30:28;8.48;;;7.38;;
20982;SDS011;10650;51.528;6.748;2023-05-10T14:32:56;9.02;;;8.13;;
20982;SDS011;10650;51.528;6.748;2023-05-10T14:35:24;9.32;;;8.43;;
20982;SDS011;10650;51.528;6.748;2023-05-10T14:37:54;9.32;;;8.43;;
20982;SDS011;10650;51.528;6.748;2023-05-10T14:40:24;9.98;;;9.07;;
20982;SDS011;10650;51.528;6.748;2023-05-10T14:42:52;10.40;;;9.30;;
20982;SDS011;10650;51.528;6.748;2023-05-10T14:45:20;10.68;;;9.57;;
20982;SDS011;10650;51.528;6.748;2023-05-10T14:47:50;9.70;;;8.70;;
20982;SDS011;10650;51.528;6.748;2023-05-10T14:50:18;10.52;;;8.48;;
20982;SDS011;10650;51.528;6.748;2023-05-10T14:53:01;10.52;;;9.52;;
20982;SDS011;10650;51.528;6.748;2023-05-10T14:55:29;11.20;;;9.70;;
20982;SDS011;10650;51.528;6.748;2023-05-10T14:57:57;10.93;;;9.82;;